sensor_id;sensor_type;location;lat;lon;timestamp;P1;durP1;ratioP1;P2;durP2;ratioP2
39880;SDS011;25554;44.954;10.068;2023-09-19T00:00:39;18.05;;;10.55;;
39880;SDS011;25554;44.954;10.068;2023-09-19T00:03:07;19.30;;;10.98;;
39880;SDS011;25554;44.954;10.068;2023-09-19T00:05:35;20.73;;;9.32;;
39880;SDS011;25554;44.954;10.068;2023-09-19T00:08:05;20.95;;;10.13;;
39880;SDS011;25554;44.954;10.068;2023-09-19T00:10:32;14.68;;;9.52;;
39880;SDS011;25554;44.954;10.068;2023-09-19T00:13:03;23.33;;;10.30;;
39880;SDS011;25554;44.954;10.068;2023-09-19T00:15:40;23.23;;;10.60;;
39880;SDS011;25554;44.954;10.068;2023-09-19T00:18:14;20.50;;;9.65;;
39880;SDS011;25554;44.954;10.068;2023-09-19T00:20:42;23.70;;;10.63;;
39880;SDS011;25554;44.954;10.068;2023-09-19T00:23:13;20.17;;;9.82;;
39880;SDS011;25554;44.954;10.068;2023-09-19T00:30:34;16.25;;;9.40;;
39880;SDS011;25554;44.954;10.068;2023-09-19T00:33:00;20.50;;;9.80;;
39880;SDS011;25554;44.954;10.068;2023-09-19T00:35:31;16.98;;;8.77;;
39880;SDS011;25554;44.954;10.068;2023-09-19T00:37:58;20.60;;;9.68;;
39880;SDS011;25554;44.954;10.068;2023-09-19T00:40:25;20.40;;;9.57;;
39880;SDS011;25554;44.954;10.068;2023-09-19T00:42:52;18.77;;;9.77;;
39880;SDS011;25554;44.954;10.068;2023-09-19T00:45:25;18.83;;;9.70;;
39880;SDS011;25554;44.954;10.068;2023-09-19T00:47:52;24.65;;;10.93;;
39880;SDS011;25554;44.954;10.068;2023-09-19T00:52:46;21.08;;;10.35;;
39880;SDS011;25554;44.954;10.068;2023-09-19T00:55:16;23.27;;;11.10;;
39880;SDS011;25554;44.954;10.068;2023-09-19T00:57:45;19.65;;;10.43;;
39880;SDS011;25554;44.954;10.068;2023-09-19T01:00:13;20.02;;;10.70;;
39880;SDS011;25554;44.954;10.068;2023-09-19T01:02:45;19.13;;;11.30;;
39880;SDS011;25554;44.954;10.068;2023-09-19T01:05:12;19.48;;;9.68;;
39880;SDS011;25554;44.954;10.068;2023-09-19T01:07:39;26.83;;;10.40;;
39880;SDS011;25554;44.954;10.068;2023-09-19T01:10:08;23.02;;;10.32;;
39880;SDS011;25554;44.954;10.068;2023-09-19T01:15:19;25.17;;;10.90;;
39880;SDS011;25554;44.954;10.068;2023-09-19T01:25:50;26.55;;;11.88;;
39880;SDS011;25554;44.954;10.068;2023-09-19T01:31:19;25.45;;;11.02;;
39880;SDS011;25554;44.954;10.068;2023-09-19T01:34:00;24.02;;;10.88;;
39880;SDS011;25554;44.954;10.068;2023-09-19T01:36:31;21.23;;;10.00;;
39880;SDS011;25554;44.954;10.068;2023-09-19T01:39:03;17.95;;;8.93;;
39880;SDS011;25554;44.954;10.068;2023-09-19T01:44:17;23.35;;;10.65;;
39880;SDS011;25554;44.954;10.068;2023-09-19T01:46:51;20.45;;;10.88;;
39880;SDS011;25554;44.954;10.068;2023-09-19T01:49:33;22.77;;;11.10;;
39880;SDS011;25554;44.954;10.068;2023-09-19T01:52:21;19.05;;;10.38;;
39880;SDS011;25554;44.954;10.068;2023-09-19T01:54:52;27.17;;;11.02;;
39880;SDS011;25554;44.954;10.068;2023-09-19T01:57:29;21.30;;;10.30;;
39880;SDS011;25554;44.954;10.068;2023-09-19T02:00:05;20.70;;;9.60;;
39880;SDS011;25554;44.954;10.068;2023-09-19T02:02:46;22.90;;;10.57;;
39880;SDS011;25554;44.954;10.068;2023-09-19T02:05:13;19.23;;;10.07;;
39880;SDS011;25554;44.954;10.068;2023-09-19T02:07:48;21.70;;;10.98;;
39880;SDS011;25554;44.954;10.068;2023-09-19T02:10:16;22.92;;;10.57;;
39880;SDS011;25554;44.954;10.068;2023-09-19T02:12:43;25.80;;;12.10;;
39880;SDS011;25554;44.954;10.068;2023-09-19T02:15:09;23.58;;;11.10;;
39880;SDS011;25554;44.954;10.068;2023-09-19T02:20:02;25.23;;;10.70;;
39880;SDS011;25554;44.954;10.068;2023-09-19T02:22:36;21.85;;;11.70;;
39880;SDS011;25554;44.954;10.068;2023-09-19T02:25:04;23.98;;;11.48;;
39880;SDS011;25554;44.954;10.068;2023-09-19T02:27:30;22.40;;;10.65;;
39880;SDS011;25554;44.954;10.068;2023-09-19T02:29:58;19.88;;;11.02;;
39880;SDS011;25554;44.954;10.068;2023-09-19T02:32:24;24.52;;;11.25;;
39880;SDS011;25554;44.954;10.068;2023-09-19T02:34:51;21.98;;;11.18;;
39880;SDS011;25554;44.954;10.068;2023-09-19T02:39:44;25.30;;;12.07;;
39880;SDS011;25554;44.954;10.068;2023-09-19T02:42:11;27.80;;;11.38;;
39880;SDS011;25554;44.954;10.068;2023-09-19T02:44:38;22.25;;;11.30;;
39880;SDS011;25554;44.954;10.068;2023-09-19T02:47:05;21.63;;;11.35;;
39880;SDS011;25554;44.954;10.068;2023-09-19T02:51:58;28.35;;;13.55;;
39880;SDS011;25554;44.954;10.068;2023-09-19T02:54:25;21.67;;;12.13;;
39880;SDS011;25554;44.954;10.068;2023-09-19T02:56:51;24.35;;;13.00;;
39880;SDS011;25554;44.954;10.068;2023-09-19T02:59:19;22.52;;;12.20;;
39880;SDS011;25554;44.954;10.068;2023-09-19T03:04:14;25.90;;;13.15;;
39880;SDS011;25554;44.954;10.068;2023-09-19T03:06:47;18.58;;;11.40;;
39880;SDS011;25554;44.954;10.068;2023-09-19T03:09:14;19.65;;;11.45;;
39880;SDS011;25554;44.954;10.068;2023-09-19T03:11:41;25.15;;;12.35;;
39880;SDS011;25554;44.954;10.068;2023-09-19T03:14:10;25.17;;;12.93;;
39880;SDS011;25554;44.954;10.068;2023-09-19T03:16:37;20.35;;;12.77;;
39880;SDS011;25554;44.954;10.068;2023-09-19T03:21:31;23.75;;;13.30;;
39880;SDS011;25554;44.954;10.068;2023-09-19T03:23:58;24.83;;;13.70;;
39880;SDS011;25554;44.954;10.068;2023-09-19T03:26:24;23.85;;;12.90;;
39880;SDS011;25554;44.954;10.068;2023-09-19T03:28:52;22.33;;;12.63;;
39880;SDS011;25554;44.954;10.068;2023-09-19T03:31:19;24.30;;;13.07;;
39880;SDS011;25554;44.954;10.068;2023-09-19T03:33:46;27.80;;;13.70;;
39880;SDS011;25554;44.954;10.068;2023-09-19T03:36:13;29.88;;;14.00;;
39880;SDS011;25554;44.954;10.068;2023-09-19T03:38:40;25.63;;;14.15;;
39880;SDS011;25554;44.954;10.068;2023-09-19T03:41:09;24.63;;;14.88;;
39880;SDS011;25554;44.954;10.068;2023-09-19T03:43:36;26.98;;;15.52;;
39880;SDS011;25554;44.954;10.068;2023-09-19T03:46:03;33.00;;;17.88;;
39880;SDS011;25554;44.954;10.068;2023-09-19T03:48:31;32.55;;;17.48;;
39880;SDS011;25554;44.954;10.068;2023-09-19T03:50:59;31.80;;;18.70;;
39880;SDS011;25554;44.954;10.068;2023-09-19T03:53:26;33.03;;;18.45;;
39880;SDS011;25554;44.954;10.068;2023-09-19T03:55:52;37.35;;;19.55;;
39880;SDS011;25554;44.954;10.068;2023-09-19T03:58:18;37.58;;;20.40;;
39880;SDS011;25554;44.954;10.068;2023-09-19T04:00:46;35.33;;;19.30;;
39880;SDS011;25554;44.954;10.068;2023-09-19T04:03:13;40.83;;;21.13;;
39880;SDS011;25554;44.954;10.068;2023-09-19T04:05:45;40.13;;;22.60;;
39880;SDS011;25554;44.954;10.068;2023-09-19T04:08:15;34.67;;;22.60;;
39880;SDS011;25554;44.954;10.068;2023-09-19T04:13:09;36.30;;;22.75;;
39880;SDS011;25554;44.954;10.068;2023-09-19T04:15:36;45.75;;;26.05;;
39880;SDS011;25554;44.954;10.068;2023-09-19T04:18:03;48.28;;;27.15;;
39880;SDS011;25554;44.954;10.068;2023-09-19T04:22:56;44.67;;;25.80;;
39880;SDS011;25554;44.954;10.068;2023-09-19T04:25:22;44.58;;;27.13;;
39880;SDS011;25554;44.954;10.068;2023-09-19T04:27:48;43.95;;;28.27;;
39880;SDS011;25554;44.954;10.068;2023-09-19T04:30:15;47.40;;;30.05;;
39880;SDS011;25554;44.954;10.068;2023-09-19T04:35:08;50.60;;;31.25;;
39880;SDS011;25554;44.954;10.068;2023-09-19T04:37:36;47.80;;;31.77;;
39880;SDS011;25554;44.954;10.068;2023-09-19T04:40:07;56.03;;;32.25;;
39880;SDS011;25554;44.954;10.068;2023-09-19T04:42:40;48.90;;;31.80;;
39880;SDS011;25554;44.954;10.068;2023-09-19T04:45:07;53.22;;;33.65;;
39880;SDS011;25554;44.954;10.068;2023-09-19T04:47:38;53.72;;;32.88;;
39880;SDS011;25554;44.954;10.068;2023-09-19T04:50:08;59.55;;;33.25;;
39880;SDS011;25554;44.954;10.068;2023-09-19T04:52:42;55.78;;;33.90;;
39880;SDS011;25554;44.954;10.068;2023-09-19T04:55:13;58.47;;;35.67;;
39880;SDS011;25554;44.954;10.068;2023-09-19T04:57:43;55.92;;;35.60;;
39880;SDS011;25554;44.954;10.068;2023-09-19T05:00:14;50.95;;;32.72;;
39880;SDS011;25554;44.954;10.068;2023-09-19T05:02:42;55.63;;;34.03;;
39880;SDS011;25554;44.954;10.068;2023-09-19T05:05:09;53.67;;;32.72;;
39880;SDS011;25554;44.954;10.068;2023-09-19T05:07:42;52.35;;;32.85;;
39880;SDS011;25554;44.954;10.068;2023-09-19T05:10:09;49.67;;;30.63;;
39880;SDS011;25554;44.954;10.068;2023-09-19T05:12:37;47.33;;;33.50;;
39880;SDS011;25554;44.954;10.068;2023-09-19T05:17:32;60.88;;;34.55;;
39880;SDS011;25554;44.954;10.068;2023-09-19T05:20:00;53.53;;;34.03;;
39880;SDS011;25554;44.954;10.068;2023-09-19T05:22:43;56.85;;;35.55;;
39880;SDS011;25554;44.954;10.068;2023-09-19T05:25:11;63.47;;;37.30;;
39880;SDS011;25554;44.954;10.068;2023-09-19T05:27:43;57.78;;;35.17;;
39880;SDS011;25554;44.954;10.068;2023-09-19T05:30:09;61.38;;;36.10;;
39880;SDS011;25554;44.954;10.068;2023-09-19T05:32:36;60.63;;;36.92;;
39880;SDS011;25554;44.954;10.068;2023-09-19T05:35:03;60.38;;;38.35;;
39880;SDS011;25554;44.954;10.068;2023-09-19T05:37:33;69.95;;;39.38;;
39880;SDS011;25554;44.954;10.068;2023-09-19T05:40:00;64.13;;;39.92;;
39880;SDS011;25554;44.954;10.068;2023-09-19T05:42:27;61.33;;;40.15;;
39880;SDS011;25554;44.954;10.068;2023-09-19T05:44:53;61.50;;;38.75;;
39880;SDS011;25554;44.954;10.068;2023-09-19T05:47:20;65.07;;;40.05;;
39880;SDS011;25554;44.954;10.068;2023-09-19T05:49:48;69.60;;;40.90;;
39880;SDS011;25554;44.954;10.068;2023-09-19T05:52:16;67.07;;;40.33;;
39880;SDS011;25554;44.954;10.068;2023-09-19T05:54:43;62.72;;;38.25;;
39880;SDS011;25554;44.954;10.068;2023-09-19T05:57:10;68.20;;;41.58;;
39880;SDS011;25554;44.954;10.068;2023-09-19T05:59:37;67.32;;;42.35;;
39880;SDS011;25554;44.954;10.068;2023-09-19T06:02:05;65.80;;;41.15;;
39880;SDS011;25554;44.954;10.068;2023-09-19T06:04:32;64.55;;;40.35;;
39880;SDS011;25554;44.954;10.068;2023-09-19T06:06:58;62.20;;;39.33;;
39880;SDS011;25554;44.954;10.068;2023-09-19T06:09:26;61.28;;;39.08;;
39880;SDS011;25554;44.954;10.068;2023-09-19T06:11:53;63.45;;;39.35;;
39880;SDS011;25554;44.954;10.068;2023-09-19T06:14:23;61.30;;;39.20;;
39880;SDS011;25554;44.954;10.068;2023-09-19T06:16:50;62.92;;;40.03;;
39880;SDS011;25554;44.954;10.068;2023-09-19T06:19:20;61.05;;;38.65;;
39880;SDS011;25554;44.954;10.068;2023-09-19T06:21:48;58.55;;;36.65;;
39880;SDS011;25554;44.954;10.068;2023-09-19T06:24:15;54.80;;;36.15;;
39880;SDS011;25554;44.954;10.068;2023-09-19T06:26:41;57.97;;;35.90;;
39880;SDS011;25554;44.954;10.068;2023-09-19T06:29:10;59.22;;;36.85;;
39880;SDS011;25554;44.954;10.068;2023-09-19T06:31:38;59.15;;;38.97;;
39880;SDS011;25554;44.954;10.068;2023-09-19T06:34:05;64.35;;;37.75;;
39880;SDS011;25554;44.954;10.068;2023-09-19T06:38:57;65.47;;;39.88;;
39880;SDS011;25554;44.954;10.068;2023-09-19T06:41:24;65.10;;;42.65;;
39880;SDS011;25554;44.954;10.068;2023-09-19T06:43:51;72.65;;;42.97;;
39880;SDS011;25554;44.954;10.068;2023-09-19T06:46:19;63.92;;;41.80;;
39880;SDS011;25554;44.954;10.068;2023-09-19T06:48:45;76.63;;;43.13;;
39880;SDS011;25554;44.954;10.068;2023-09-19T06:51:13;69.68;;;42.63;;
39880;SDS011;25554;44.954;10.068;2023-09-19T06:53:42;74.00;;;43.55;;
39880;SDS011;25554;44.954;10.068;2023-09-19T06:58:34;67.65;;;41.72;;
39880;SDS011;25554;44.954;10.068;2023-09-19T07:01:02;79.05;;;46.22;;
39880;SDS011;25554;44.954;10.068;2023-09-19T07:03:29;73.93;;;43.60;;
39880;SDS011;25554;44.954;10.068;2023-09-19T07:05:56;67.38;;;43.08;;
39880;SDS011;25554;44.954;10.068;2023-09-19T07:08:24;69.53;;;41.53;;
39880;SDS011;25554;44.954;10.068;2023-09-19T07:10:50;64.00;;;40.92;;
39880;SDS011;25554;44.954;10.068;2023-09-19T07:13:18;67.10;;;43.30;;
39880;SDS011;25554;44.954;10.068;2023-09-19T07:18:18;63.90;;;39.75;;
39880;SDS011;25554;44.954;10.068;2023-09-19T07:20:45;64.10;;;39.17;;
39880;SDS011;25554;44.954;10.068;2023-09-19T07:23:15;63.58;;;42.55;;
39880;SDS011;25554;44.954;10.068;2023-09-19T07:25:48;65.55;;;42.20;;
39880;SDS011;25554;44.954;10.068;2023-09-19T07:28:15;65.80;;;41.17;;
39880;SDS011;25554;44.954;10.068;2023-09-19T07:30:42;64.15;;;41.53;;
39880;SDS011;25554;44.954;10.068;2023-09-19T07:33:08;61.78;;;41.17;;
39880;SDS011;25554;44.954;10.068;2023-09-19T07:35:37;69.07;;;40.42;;
39880;SDS011;25554;44.954;10.068;2023-09-19T07:38:07;61.80;;;40.08;;
39880;SDS011;25554;44.954;10.068;2023-09-19T07:40:33;62.47;;;39.83;;
39880;SDS011;25554;44.954;10.068;2023-09-19T07:43:00;65.53;;;41.20;;
39880;SDS011;25554;44.954;10.068;2023-09-19T07:45:30;62.08;;;38.92;;
39880;SDS011;25554;44.954;10.068;2023-09-19T07:47:57;64.70;;;41.05;;
39880;SDS011;25554;44.954;10.068;2023-09-19T07:50:24;62.28;;;37.88;;
39880;SDS011;25554;44.954;10.068;2023-09-19T07:52:51;66.82;;;40.15;;
39880;SDS011;25554;44.954;10.068;2023-09-19T07:55:19;60.72;;;38.13;;
39880;SDS011;25554;44.954;10.068;2023-09-19T07:57:49;54.40;;;36.30;;
39880;SDS011;25554;44.954;10.068;2023-09-19T08:00:15;56.60;;;36.42;;
39880;SDS011;25554;44.954;10.068;2023-09-19T08:05:09;46.28;;;30.80;;
39880;SDS011;25554;44.954;10.068;2023-09-19T08:07:40;60.00;;;36.25;;
39880;SDS011;25554;44.954;10.068;2023-09-19T08:10:09;58.33;;;37.13;;
39880;SDS011;25554;44.954;10.068;2023-09-19T08:12:39;56.60;;;34.83;;
39880;SDS011;25554;44.954;10.068;2023-09-19T08:15:14;55.45;;;31.15;;
39880;SDS011;25554;44.954;10.068;2023-09-19T08:17:41;45.58;;;28.60;;
39880;SDS011;25554;44.954;10.068;2023-09-19T08:20:08;51.63;;;31.08;;
39880;SDS011;25554;44.954;10.068;2023-09-19T08:25:18;46.42;;;31.52;;
39880;SDS011;25554;44.954;10.068;2023-09-19T08:27:45;46.58;;;29.88;;
39880;SDS011;25554;44.954;10.068;2023-09-19T08:30:14;45.63;;;29.88;;
39880;SDS011;25554;44.954;10.068;2023-09-19T08:32:41;43.30;;;29.30;;
39880;SDS011;25554;44.954;10.068;2023-09-19T08:35:08;47.28;;;30.30;;
39880;SDS011;25554;44.954;10.068;2023-09-19T08:37:36;46.00;;;30.20;;
39880;SDS011;25554;44.954;10.068;2023-09-19T08:40:02;48.60;;;31.67;;
39880;SDS011;25554;44.954;10.068;2023-09-19T08:42:29;46.35;;;30.83;;
39880;SDS011;25554;44.954;10.068;2023-09-19T08:44:55;47.45;;;30.15;;
39880;SDS011;25554;44.954;10.068;2023-09-19T08:47:35;54.08;;;32.00;;
39880;SDS011;25554;44.954;10.068;2023-09-19T08:50:11;46.80;;;28.55;;
39880;SDS011;25554;44.954;10.068;2023-09-19T08:52:56;48.22;;;29.00;;
39880;SDS011;25554;44.954;10.068;2023-09-19T08:55:27;52.00;;;28.50;;
39880;SDS011;25554;44.954;10.068;2023-09-19T08:58:01;51.08;;;28.27;;
39880;SDS011;25554;44.954;10.068;2023-09-19T09:00:30;39.55;;;24.85;;
39880;SDS011;25554;44.954;10.068;2023-09-19T09:02:57;41.55;;;25.52;;
39880;SDS011;25554;44.954;10.068;2023-09-19T09:05:26;39.83;;;24.33;;
39880;SDS011;25554;44.954;10.068;2023-09-19T09:07:53;37.25;;;22.98;;
39880;SDS011;25554;44.954;10.068;2023-09-19T09:10:22;35.28;;;21.80;;
39880;SDS011;25554;44.954;10.068;2023-09-19T09:12:52;37.00;;;22.05;;
39880;SDS011;25554;44.954;10.068;2023-09-19T09:15:21;30.80;;;20.40;;
39880;SDS011;25554;44.954;10.068;2023-09-19T09:17:49;36.45;;;20.70;;
39880;SDS011;25554;44.954;10.068;2023-09-19T09:20:19;37.65;;;24.35;;
39880;SDS011;25554;44.954;10.068;2023-09-19T09:22:52;41.35;;;24.70;;
39880;SDS011;25554;44.954;10.068;2023-09-19T09:25:19;38.97;;;23.40;;
39880;SDS011;25554;44.954;10.068;2023-09-19T09:27:59;32.83;;;20.10;;
39880;SDS011;25554;44.954;10.068;2023-09-19T09:30:33;32.78;;;20.50;;
39880;SDS011;25554;44.954;10.068;2023-09-19T09:33:09;36.15;;;20.90;;
39880;SDS011;25554;44.954;10.068;2023-09-19T09:35:58;33.22;;;19.42;;
39880;SDS011;25554;44.954;10.068;2023-09-19T09:38:27;39.30;;;22.63;;
39880;SDS011;25554;44.954;10.068;2023-09-19T09:40:58;34.10;;;19.58;;
39880;SDS011;25554;44.954;10.068;2023-09-19T09:43:35;35.78;;;19.50;;
39880;SDS011;25554;44.954;10.068;2023-09-19T09:46:08;33.25;;;19.40;;
39880;SDS011;25554;44.954;10.068;2023-09-19T09:51:47;32.38;;;17.38;;
39880;SDS011;25554;44.954;10.068;2023-09-19T09:54:26;28.40;;;17.25;;
39880;SDS011;25554;44.954;10.068;2023-09-19T09:57:03;34.55;;;16.80;;
39880;SDS011;25554;44.954;10.068;2023-09-19T09:59:52;31.25;;;17.80;;
39880;SDS011;25554;44.954;10.068;2023-09-19T10:02:24;29.00;;;16.70;;
39880;SDS011;25554;44.954;10.068;2023-09-19T10:04:55;26.40;;;14.63;;
39880;SDS011;25554;44.954;10.068;2023-09-19T10:07:39;25.98;;;16.75;;
39880;SDS011;25554;44.954;10.068;2023-09-19T10:10:08;27.77;;;15.88;;
39880;SDS011;25554;44.954;10.068;2023-09-19T10:12:54;27.73;;;16.00;;
39880;SDS011;25554;44.954;10.068;2023-09-19T10:15:29;26.73;;;15.30;;
39880;SDS011;25554;44.954;10.068;2023-09-19T10:17:59;26.65;;;14.85;;
39880;SDS011;25554;44.954;10.068;2023-09-19T10:20:27;25.42;;;14.35;;
39880;SDS011;25554;44.954;10.068;2023-09-19T10:23:07;21.58;;;13.15;;
39880;SDS011;25554;44.954;10.068;2023-09-19T10:25:37;71.45;;;42.95;;
39880;SDS011;25554;44.954;10.068;2023-09-19T10:28:08;26.63;;;16.10;;
39880;SDS011;25554;44.954;10.068;2023-09-19T10:30:43;25.00;;;15.20;;
39880;SDS011;25554;44.954;10.068;2023-09-19T10:33:11;23.35;;;13.23;;
39880;SDS011;25554;44.954;10.068;2023-09-19T10:35:45;28.15;;;13.73;;
39880;SDS011;25554;44.954;10.068;2023-09-19T10:38:14;23.38;;;13.27;;
39880;SDS011;25554;44.954;10.068;2023-09-19T10:40:44;28.58;;;14.93;;
39880;SDS011;25554;44.954;10.068;2023-09-19T10:43:16;26.95;;;14.35;;
39880;SDS011;25554;44.954;10.068;2023-09-19T10:45:44;20.42;;;11.88;;
39880;SDS011;25554;44.954;10.068;2023-09-19T10:48:15;24.75;;;13.57;;
39880;SDS011;25554;44.954;10.068;2023-09-19T10:50:46;22.88;;;13.85;;
39880;SDS011;25554;44.954;10.068;2023-09-19T10:53:16;20.65;;;13.23;;
39880;SDS011;25554;44.954;10.068;2023-09-19T10:55:52;21.55;;;11.65;;
39880;SDS011;25554;44.954;10.068;2023-09-19T10:58:27;22.02;;;10.25;;
39880;SDS011;25554;44.954;10.068;2023-09-19T11:01:00;19.95;;;10.93;;
39880;SDS011;25554;44.954;10.068;2023-09-19T11:03:38;20.33;;;10.60;;
39880;SDS011;25554;44.954;10.068;2023-09-19T11:06:11;18.95;;;10.68;;
39880;SDS011;25554;44.954;10.068;2023-09-19T11:11:41;20.25;;;9.60;;
39880;SDS011;25554;44.954;10.068;2023-09-19T11:30:41;16.23;;;9.73;;
39880;SDS011;25554;44.954;10.068;2023-09-19T11:33:17;15.90;;;10.13;;
39880;SDS011;25554;44.954;10.068;2023-09-19T11:36:07;14.90;;;8.30;;
39880;SDS011;25554;44.954;10.068;2023-09-19T11:43:49;19.48;;;8.75;;
39880;SDS011;25554;44.954;10.068;2023-09-19T11:46:17;15.77;;;8.40;;
39880;SDS011;25554;44.954;10.068;2023-09-19T11:48:47;13.35;;;7.55;;
39880;SDS011;25554;44.954;10.068;2023-09-19T11:51:18;12.77;;;7.32;;
39880;SDS011;25554;44.954;10.068;2023-09-19T11:53:50;13.43;;;8.70;;
39880;SDS011;25554;44.954;10.068;2023-09-19T11:56:18;15.38;;;8.52;;
39880;SDS011;25554;44.954;10.068;2023-09-19T11:58:46;13.30;;;7.30;;
39880;SDS011;25554;44.954;10.068;2023-09-19T12:01:23;11.95;;;7.18;;
39880;SDS011;25554;44.954;10.068;2023-09-19T12:03:58;17.35;;;7.45;;
39880;SDS011;25554;44.954;10.068;2023-09-19T12:06:26;16.10;;;7.07;;
39880;SDS011;25554;44.954;10.068;2023-09-19T12:08:55;14.85;;;8.00;;
39880;SDS011;25554;44.954;10.068;2023-09-19T12:11:23;14.32;;;8.35;;
39880;SDS011;25554;44.954;10.068;2023-09-19T12:13:50;13.98;;;7.75;;
39880;SDS011;25554;44.954;10.068;2023-09-19T12:16:20;16.98;;;9.30;;
39880;SDS011;25554;44.954;10.068;2023-09-19T12:18:50;13.18;;;9.52;;
39880;SDS011;25554;44.954;10.068;2023-09-19T12:21:23;15.75;;;8.68;;
39880;SDS011;25554;44.954;10.068;2023-09-19T12:26:46;16.83;;;9.23;;
39880;SDS011;25554;44.954;10.068;2023-09-19T12:29:19;8.82;;;6.10;;
39880;SDS011;25554;44.954;10.068;2023-09-19T12:31:56;11.63;;;7.72;;
39880;SDS011;25554;44.954;10.068;2023-09-19T12:34:25;11.52;;;7.45;;
39880;SDS011;25554;44.954;10.068;2023-09-19T12:39:53;19.52;;;7.65;;
39880;SDS011;25554;44.954;10.068;2023-09-19T12:42:40;11.30;;;6.80;;
39880;SDS011;25554;44.954;10.068;2023-09-19T12:45:07;14.45;;;6.63;;
39880;SDS011;25554;44.954;10.068;2023-09-19T12:47:39;12.40;;;6.43;;
39880;SDS011;25554;44.954;10.068;2023-09-19T12:50:09;9.27;;;5.15;;
39880;SDS011;25554;44.954;10.068;2023-09-19T12:52:44;15.35;;;7.43;;
39880;SDS011;25554;44.954;10.068;2023-09-19T12:55:22;15.13;;;6.85;;
39880;SDS011;25554;44.954;10.068;2023-09-19T12:58:01;14.57;;;6.43;;
39880;SDS011;25554;44.954;10.068;2023-09-19T13:00:45;12.48;;;6.10;;
39880;SDS011;25554;44.954;10.068;2023-09-19T13:06:03;11.38;;;6.18;;
39880;SDS011;25554;44.954;10.068;2023-09-19T13:08:30;13.27;;;7.15;;
39880;SDS011;25554;44.954;10.068;2023-09-19T13:11:04;12.85;;;6.35;;
39880;SDS011;25554;44.954;10.068;2023-09-19T13:13:44;17.30;;;6.85;;
39880;SDS011;25554;44.954;10.068;2023-09-19T13:16:15;14.35;;;6.00;;
39880;SDS011;25554;44.954;10.068;2023-09-19T13:18:51;10.80;;;5.93;;
39880;SDS011;25554;44.954;10.068;2023-09-19T13:21:31;14.45;;;6.15;;
39880;SDS011;25554;44.954;10.068;2023-09-19T13:24:18;7.72;;;5.18;;
39880;SDS011;25554;44.954;10.068;2023-09-19T13:26:46;11.52;;;5.78;;
39880;SDS011;25554;44.954;10.068;2023-09-19T13:29:12;9.55;;;5.35;;
39880;SDS011;25554;44.954;10.068;2023-09-19T13:31:50;13.27;;;5.45;;
39880;SDS011;25554;44.954;10.068;2023-09-19T13:34:19;10.20;;;4.82;;
39880;SDS011;25554;44.954;10.068;2023-09-19T13:36:46;8.52;;;4.85;;
39880;SDS011;25554;44.954;10.068;2023-09-19T13:39:16;10.95;;;5.57;;
39880;SDS011;25554;44.954;10.068;2023-09-19T13:41:46;12.07;;;5.18;;
39880;SDS011;25554;44.954;10.068;2023-09-19T13:44:14;13.73;;;6.25;;
39880;SDS011;25554;44.954;10.068;2023-09-19T13:46:41;10.68;;;5.85;;
39880;SDS011;25554;44.954;10.068;2023-09-19T13:49:11;10.82;;;5.68;;
39880;SDS011;25554;44.954;10.068;2023-09-19T13:51:37;9.05;;;5.07;;
39880;SDS011;25554;44.954;10.068;2023-09-19T13:54:04;7.93;;;4.25;;
39880;SDS011;25554;44.954;10.068;2023-09-19T13:56:31;13.25;;;5.10;;
39880;SDS011;25554;44.954;10.068;2023-09-19T13:58:57;12.23;;;4.88;;
39880;SDS011;25554;44.954;10.068;2023-09-19T14:01:24;7.22;;;4.68;;
39880;SDS011;25554;44.954;10.068;2023-09-19T14:03:52;9.48;;;5.20;;
39880;SDS011;25554;44.954;10.068;2023-09-19T14:06:19;8.93;;;4.72;;
39880;SDS011;25554;44.954;10.068;2023-09-19T14:08:46;9.80;;;4.63;;
39880;SDS011;25554;44.954;10.068;2023-09-19T14:11:13;10.00;;;4.78;;
39880;SDS011;25554;44.954;10.068;2023-09-19T14:13:40;9.07;;;4.57;;
39880;SDS011;25554;44.954;10.068;2023-09-19T14:16:06;11.05;;;5.05;;
39880;SDS011;25554;44.954;10.068;2023-09-19T14:18:34;11.07;;;5.07;;
39880;SDS011;25554;44.954;10.068;2023-09-19T14:21:04;10.48;;;5.25;;
39880;SDS011;25554;44.954;10.068;2023-09-19T14:23:34;10.65;;;4.63;;
39880;SDS011;25554;44.954;10.068;2023-09-19T14:26:02;8.27;;;4.35;;
39880;SDS011;25554;44.954;10.068;2023-09-19T14:28:28;9.48;;;4.43;;
39880;SDS011;25554;44.954;10.068;2023-09-19T14:30:55;10.10;;;5.10;;
39880;SDS011;25554;44.954;10.068;2023-09-19T14:33:22;8.65;;;4.57;;
39880;SDS011;25554;44.954;10.068;2023-09-19T14:35:48;8.95;;;4.13;;
39880;SDS011;25554;44.954;10.068;2023-09-19T14:38:14;6.43;;;4.00;;
39880;SDS011;25554;44.954;10.068;2023-09-19T14:40:40;8.75;;;4.70;;
39880;SDS011;25554;44.954;10.068;2023-09-19T14:43:08;10.80;;;4.45;;
39880;SDS011;25554;44.954;10.068;2023-09-19T14:45:35;9.73;;;4.53;;
39880;SDS011;25554;44.954;10.068;2023-09-19T14:48:02;9.50;;;4.53;;
39880;SDS011;25554;44.954;10.068;2023-09-19T14:50:31;7.65;;;5.13;;
39880;SDS011;25554;44.954;10.068;2023-09-19T14:52:58;12.07;;;4.47;;
39880;SDS011;25554;44.954;10.068;2023-09-19T14:55:27;12.10;;;5.07;;
39880;SDS011;25554;44.954;10.068;2023-09-19T14:57:55;8.88;;;4.32;;
39880;SDS011;25554;44.954;10.068;2023-09-19T15:00:24;6.53;;;4.15;;
39880;SDS011;25554;44.954;10.068;2023-09-19T15:02:50;10.18;;;4.32;;
39880;SDS011;25554;44.954;10.068;2023-09-19T15:05:17;10.63;;;4.45;;
39880;SDS011;25554;44.954;10.068;2023-09-19T15:07:44;6.18;;;4.15;;
39880;SDS011;25554;44.954;10.068;2023-09-19T15:10:10;7.18;;;3.85;;
39880;SDS011;25554;44.954;10.068;2023-09-19T15:12:41;9.02;;;4.72;;
39880;SDS011;25554;44.954;10.068;2023-09-19T15:15:08;10.38;;;4.63;;
39880;SDS011;25554;44.954;10.068;2023-09-19T15:17:35;9.32;;;4.28;;
39880;SDS011;25554;44.954;10.068;2023-09-19T15:20:02;8.57;;;4.13;;
39880;SDS011;25554;44.954;10.068;2023-09-19T15:22:35;9.18;;;3.80;;
39880;SDS011;25554;44.954;10.068;2023-09-19T15:25:02;10.10;;;4.15;;
39880;SDS011;25554;44.954;10.068;2023-09-19T15:27:29;9.75;;;4.85;;
39880;SDS011;25554;44.954;10.068;2023-09-19T15:29:59;10.23;;;4.78;;
39880;SDS011;25554;44.954;10.068;2023-09-19T15:32:26;10.50;;;4.50;;
39880;SDS011;25554;44.954;10.068;2023-09-19T15:37:18;10.95;;;4.95;;
39880;SDS011;25554;44.954;10.068;2023-09-19T15:39:46;9.70;;;4.53;;
39880;SDS011;25554;44.954;10.068;2023-09-19T15:42:12;7.03;;;4.07;;
39880;SDS011;25554;44.954;10.068;2023-09-19T15:44:39;6.75;;;4.28;;
39880;SDS011;25554;44.954;10.068;2023-09-19T15:47:06;12.10;;;4.32;;
39880;SDS011;25554;44.954;10.068;2023-09-19T15:49:34;8.65;;;4.50;;
39880;SDS011;25554;44.954;10.068;2023-09-19T15:52:00;9.43;;;4.82;;
39880;SDS011;25554;44.954;10.068;2023-09-19T15:54:27;8.05;;;4.82;;
39880;SDS011;25554;44.954;10.068;2023-09-19T15:56:53;10.35;;;4.55;;
39880;SDS011;25554;44.954;10.068;2023-09-19T15:59:20;7.00;;;4.32;;
39880;SDS011;25554;44.954;10.068;2023-09-19T16:01:47;10.88;;;5.13;;
39880;SDS011;25554;44.954;10.068;2023-09-19T16:04:14;8.68;;;4.63;;